Hauptseite
METAR-TAF:

METAR-TAF

Flughäfen :

Kisarazu, Japan

Breite: 35-24N, Länge: 139-55E, Höhe: 3 m

Beobachtung

Neuester Wetterbericht von vor 11 Stunden und 48 Minuten, um 01:24 UTC
Wind 8 kt aus Nord/Nordost
Temperatur 18°C
Luftfeuchtigkeit 77%
Luftdruck 1017 hPa
Sichtweite 10 km oder mehr
Leicht bewölkt in der Höhe von 2000 ft
Durchbrochene Bewölkung in der Höhe von 4000 ft

METAR: RJTK 230124Z 03008KT 9999 FEW020 BKN040 18/14 Q1017 RMK 2CU020 7SC040 A3003

Zeit: 22:12 (13:12 UTC)


TAF: fehlend

Wetterbeobachtungen und Prognosen von mehr als 4000 Flughäfen (METAR und TAF Bericht).

Die verfügbaren Stationen werden durch gelbe und rote Markierungen auf der Karte dargestellt.

Führen Sie die Maus auf sie, um den Namen der Station zu sehen.

Darauf klicken, um die Beobachtung von Wetterbeobachtungen und Prognosen zu sehen.

Um die Karte zu ändern : klicken Sie auf den grünen Tasten mit einem schwarzen Kreuz Zum Vergrößern, auf den grünen Button mit einem Gedankenstrich zu verkleinern, oder auf die grünen Pfeile für benachbarte Karten.


METAR-TAF: